createdAt,value
2023-03-31T00:03:25.083Z,30.34
2023-03-31T00:08:22.068Z,29.51
2023-03-31T00:13:19.695Z,27.65
2023-03-31T00:18:16.595Z,30.80
2023-03-31T00:23:14.020Z,33.23
2023-03-31T00:28:10.989Z,33.45
2023-03-31T00:33:08.903Z,33.40
2023-03-31T00:38:08.346Z,33.67
2023-03-31T00:43:24.395Z,33.71
2023-03-31T00:48:23.518Z,34.29
2023-03-31T00:53:25.570Z,34.94
2023-03-31T00:58:27.554Z,34.84
2023-03-31T01:03:25.908Z,34.93
2023-03-31T01:08:26.550Z,34.84
2023-03-31T01:13:24.311Z,35.07
2023-03-31T01:18:22.154Z,35.09
2023-03-31T01:23:49.889Z,35.19
2023-03-31T01:28:53.967Z,35.33
2023-03-31T01:34:21.998Z,35.82
2023-03-31T01:39:50.505Z,35.24
2023-03-31T01:44:58.864Z,35.08
2023-03-31T01:50:02.699Z,35.10
2023-03-31T01:55:06.635Z,34.95
2023-03-31T02:00:09.015Z,34.89
2023-03-31T02:05:16.787Z,35.15
2023-03-31T02:10:16.922Z,35.35
2023-03-31T02:15:18.908Z,35.02
2023-03-31T02:20:20.173Z,35.26
2023-03-31T02:25:21.977Z,34.98
2023-03-31T02:30:19.659Z,34.75
2023-03-31T02:35:19.526Z,34.59
2023-03-31T02:40:18.628Z,34.38
2023-03-31T02:45:42.544Z,34.19
2023-03-31T02:50:53.842Z,34.44
2023-03-31T02:56:07.616Z,34.31
2023-03-31T03:01:18.118Z,34.65
2023-03-31T03:06:29.587Z,34.91
2023-03-31T03:12:01.607Z,35.58
2023-03-31T03:17:01.629Z,35.52
2023-03-31T03:21:58.830Z,36.73
2023-03-31T03:26:56.046Z,37.05
2023-03-31T03:31:53.190Z,37.82
2023-03-31T03:36:51.358Z,37.75
2023-03-31T03:41:48.148Z,38.06
2023-03-31T03:46:45.359Z,38.58
2023-03-31T03:51:42.308Z,38.01
2023-03-31T03:56:40.060Z,37.74
2023-03-31T04:01:37.028Z,37.90
2023-03-31T04:06:33.970Z,38.36
2023-03-31T04:11:31.092Z,38.69
2023-03-31T04:16:28.893Z,39.49
2023-03-31T04:21:26.172Z,40.40
2023-03-31T04:26:30.206Z,41.40
2023-03-31T04:31:30.027Z,42.42
2023-03-31T04:36:28.421Z,42.65
2023-03-31T04:41:27.320Z,43.25
2023-03-31T04:46:24.906Z,43.62
2023-03-31T04:51:21.792Z,43.96
2023-03-31T04:56:19.316Z,43.72
2023-03-31T05:01:19.572Z,43.35
2023-03-31T05:06:17.342Z,43.76
2023-03-31T05:11:14.084Z,43.24
2023-03-31T05:16:13.816Z,43.34
2023-03-31T05:21:12.204Z,43.82
2023-03-31T05:26:09.842Z,43.54
2023-03-31T05:31:08.360Z,43.99
2023-03-31T05:36:06.891Z,44.01
2023-03-31T05:41:03.831Z,44.29
2023-03-31T05:46:00.757Z,45.02
2023-03-31T05:50:57.982Z,44.89
2023-03-31T05:55:59.704Z,45.74
2023-03-31T06:01:05.895Z,45.84
2023-03-31T06:06:04.680Z,46.30
2023-03-31T06:11:06.798Z,47.18
2023-03-31T06:16:04.653Z,47.48
2023-03-31T06:21:02.164Z,48.13
2023-03-31T06:26:02.352Z,49.12
2023-03-31T06:31:03.863Z,49.56
2023-03-31T06:36:12.876Z,50.09
2023-03-31T06:41:14.031Z,51.84
2023-03-31T06:46:12.087Z,52.34
2023-03-31T06:51:13.472Z,53.67
2023-03-31T06:56:11.162Z,54.90
2023-03-31T07:01:11.282Z,54.81
2023-03-31T07:06:08.765Z,55.90
2023-03-31T07:11:06.038Z,57.02
2023-03-31T07:16:04.700Z,57.74
2023-03-31T07:21:01.673Z,58.46
2023-03-31T07:26:01.824Z,58.46
2023-03-31T07:30:59.232Z,59.38
2023-03-31T07:36:10.763Z,60.05
2023-03-31T07:41:17.875Z,60.33
2023-03-31T07:46:17.033Z,60.64
2023-03-31T07:51:15.903Z,61.08
2023-03-31T07:56:13.296Z,61.38
2023-03-31T08:01:11.757Z,61.80
2023-03-31T08:06:09.149Z,62.41
2023-03-31T08:11:12.856Z,62.56
2023-03-31T08:16:10.565Z,62.74
2023-03-31T08:21:11.027Z,62.55
2023-03-31T08:26:16.429Z,60.28
2023-03-31T08:31:16.710Z,58.51
2023-03-31T08:36:13.899Z,56.40
2023-03-31T08:41:35.138Z,54.39
2023-03-31T08:46:35.046Z,53.36
2023-03-31T08:51:38.075Z,52.84
2023-03-31T08:56:40.109Z,52.72
2023-03-31T09:01:55.414Z,51.31
2023-03-31T09:07:01.934Z,49.63
2023-03-31T09:12:07.003Z,47.87
2023-03-31T09:17:18.118Z,44.78
2023-03-31T09:22:20.159Z,42.89
2023-03-31T09:27:19.772Z,41.22
2023-03-31T09:32:18.697Z,40.59
2023-03-31T09:37:20.241Z,40.70
2023-03-31T09:42:21.370Z,39.91
2023-03-31T09:47:28.960Z,39.70
2023-03-31T09:52:29.808Z,38.72
2023-03-31T09:57:31.984Z,37.96
2023-03-31T10:02:36.886Z,37.00
2023-03-31T10:07:34.997Z,35.42
2023-03-31T10:12:32.930Z,33.41
2023-03-31T10:17:34.004Z,33.30
2023-03-31T10:22:44.023Z,33.48
2023-03-31T10:27:43.251Z,33.88
2023-03-31T10:32:42.743Z,34.60
2023-03-31T10:37:40.397Z,34.87
2023-03-31T10:42:39.709Z,35.50
2023-03-31T10:47:40.016Z,36.13
2023-03-31T10:52:44.898Z,36.55
2023-03-31T10:57:50.436Z,36.49
2023-03-31T11:03:14.037Z,36.99
2023-03-31T11:08:25.274Z,37.35
2023-03-31T11:13:29.053Z,37.80
2023-03-31T11:18:36.990Z,37.80
2023-03-31T11:23:42.276Z,38.26
2023-03-31T11:28:51.886Z,38.01
2023-03-31T11:34:01.449Z,38.88
2023-03-31T11:39:18.372Z,39.09
2023-03-31T11:44:18.465Z,39.15
2023-03-31T11:49:20.791Z,38.47
2023-03-31T11:54:24.903Z,38.75
2023-03-31T11:59:26.887Z,38.21
2023-03-31T12:04:37.260Z,38.08
2023-03-31T12:09:44.220Z,38.39
2023-03-31T12:14:49.981Z,38.33
2023-03-31T12:19:50.844Z,38.64
2023-03-31T12:24:51.427Z,38.71
2023-03-31T12:29:56.170Z,37.66
2023-03-31T12:34:57.071Z,36.41
2023-03-31T12:40:08.797Z,36.93
2023-03-31T12:45:17.532Z,35.97
2023-03-31T12:50:36.647Z,35.97
2023-03-31T12:55:51.643Z,35.87
2023-03-31T13:01:04.912Z,37.32
2023-03-31T13:06:04.380Z,37.31
2023-03-31T13:11:01.414Z,37.32
2023-03-31T13:16:01.156Z,36.84
2023-03-31T13:21:00.252Z,37.34
2023-03-31T13:25:59.644Z,37.38
2023-03-31T13:31:01.290Z,37.30
2023-03-31T13:36:25.079Z,37.18
2023-03-31T13:41:37.148Z,36.83
2023-03-31T13:46:51.746Z,37.79
2023-03-31T13:51:57.121Z,38.11
2023-03-31T13:57:17.973Z,38.11
2023-03-31T14:02:44.848Z,37.75
2023-03-31T14:07:46.400Z,37.37
2023-03-31T14:12:43.911Z,38.14
2023-03-31T14:17:44.407Z,37.89
2023-03-31T14:22:48.595Z,36.97
2023-03-31T14:28:00.322Z,37.08
2023-03-31T14:33:09.231Z,37.24
2023-03-31T14:38:13.789Z,37.96
2023-03-31T14:43:18.808Z,38.30
2023-03-31T14:48:16.131Z,38.30
2023-03-31T14:53:16.833Z,38.54
2023-03-31T14:58:23.114Z,38.82
2023-03-31T15:03:20.193Z,39.19
2023-03-31T15:08:20.161Z,39.29
2023-03-31T15:13:24.395Z,39.59
2023-03-31T15:18:21.227Z,39.10
2023-03-31T15:23:24.384Z,38.57
2023-03-31T15:28:23.366Z,38.67
2023-03-31T15:33:24.907Z,38.62
2023-03-31T15:38:25.281Z,38.89
2023-03-31T15:43:30.089Z,38.72
2023-03-31T15:48:29.110Z,39.56
2023-03-31T15:53:30.206Z,38.93
2023-03-31T15:58:57.574Z,38.85
2023-03-31T16:03:55.298Z,39.40
2023-03-31T16:08:57.510Z,39.39
2023-03-31T16:14:02.254Z,39.71
2023-03-31T16:19:04.063Z,40.05
2023-03-31T16:24:01.159Z,39.99
2023-03-31T16:29:00.459Z,40.23
2023-03-31T16:33:57.713Z,40.71
2023-03-31T16:38:59.684Z,41.07
2023-03-31T16:43:58.781Z,41.29
2023-03-31T16:48:55.979Z,41.55
2023-03-31T16:53:52.815Z,42.01
2023-03-31T16:58:50.686Z,42.54
2023-03-31T17:03:50.992Z,42.79
2023-03-31T17:08:50.914Z,43.35
2023-03-31T17:13:48.190Z,43.98
2023-03-31T17:18:45.416Z,44.20
2023-03-31T17:23:43.142Z,44.54
2023-03-31T17:28:41.054Z,44.99
2023-03-31T17:33:41.293Z,45.42
2023-03-31T17:38:39.084Z,45.61
2023-03-31T17:43:37.741Z,45.90
2023-03-31T17:48:34.693Z,46.30
2023-03-31T17:53:31.688Z,46.43
2023-03-31T17:58:29.473Z,46.79
2023-03-31T18:03:28.829Z,46.99
2023-03-31T18:08:25.779Z,47.23
2023-03-31T18:13:23.710Z,47.32
2023-03-31T18:18:22.628Z,47.66
2023-03-31T18:23:20.210Z,47.73
2023-03-31T18:28:17.779Z,48.01
2023-03-31T18:33:14.892Z,48.09
2023-03-31T18:38:11.992Z,48.21
2023-03-31T18:43:11.126Z,48.23
2023-03-31T18:48:10.201Z,48.76
2023-03-31T18:53:07.145Z,48.76
2023-03-31T18:58:04.052Z,48.70
2023-03-31T19:03:02.131Z,49.05
2023-03-31T19:07:59.111Z,49.04
2023-03-31T19:12:56.510Z,49.23
2023-03-31T19:17:53.547Z,49.23
2023-03-31T19:22:51.873Z,49.23
2023-03-31T19:27:49.774Z,49.77
2023-03-31T19:32:48.231Z,49.89
2023-03-31T19:37:45.189Z,49.96
2023-03-31T19:42:43.619Z,50.19
2023-03-31T19:47:40.544Z,50.00
2023-03-31T19:52:37.374Z,50.04
2023-03-31T19:57:34.219Z,49.93
2023-03-31T20:02:32.062Z,50.43
2023-03-31T20:07:31.955Z,49.83
2023-03-31T20:12:29.936Z,50.16
2023-03-31T20:17:26.968Z,50.34
2023-03-31T20:22:25.739Z,50.40
2023-03-31T20:27:25.651Z,50.86
2023-03-31T20:32:25.054Z,50.67
2023-03-31T20:37:21.937Z,50.93
2023-03-31T20:42:20.149Z,51.31
2023-03-31T20:47:16.975Z,51.43
2023-03-31T20:52:13.792Z,51.56
2023-03-31T20:57:11.097Z,51.63
2023-03-31T21:02:11.478Z,52.04
2023-03-31T21:07:08.202Z,52.26
2023-03-31T21:12:05.736Z,52.33
2023-03-31T21:17:02.820Z,52.53
2023-03-31T21:22:00.483Z,52.40
2023-03-31T21:26:57.214Z,52.59
2023-03-31T21:31:54.003Z,52.58
2023-03-31T21:36:50.798Z,52.91
2023-03-31T21:41:48.281Z,53.26
2023-03-31T21:46:47.315Z,53.56
2023-03-31T21:51:44.217Z,53.75
2023-03-31T21:56:40.969Z,53.97
2023-03-31T22:01:38.589Z,54.18
2023-03-31T22:06:37.047Z,54.38
2023-03-31T22:11:33.858Z,54.68
2023-03-31T22:16:30.941Z,54.79
2023-03-31T22:21:28.575Z,54.95
2023-03-31T22:26:26.483Z,54.64
2023-03-31T22:31:23.832Z,54.57
2023-03-31T22:36:21.191Z,54.08
2023-03-31T22:41:18.734Z,54.03
2023-03-31T22:46:15.893Z,53.92
2023-03-31T22:51:13.840Z,53.35
2023-03-31T22:56:11.952Z,53.38
2023-03-31T23:01:14.844Z,53.29
2023-03-31T23:06:12.281Z,53.77
2023-03-31T23:11:11.945Z,53.99
2023-03-31T23:16:12.792Z,54.16
2023-03-31T23:21:10.261Z,54.45
2023-03-31T23:26:07.086Z,54.15
2023-03-31T23:31:04.358Z,53.50
2023-03-31T23:36:03.961Z,53.49
2023-03-31T23:41:02.953Z,53.25
2023-03-31T23:46:01.605Z,52.99
2023-03-31T23:50:58.408Z,52.57
2023-03-31T23:55:57.734Z,53.29
